createdAt,value
2017-11-04T00:00:36.764Z,1006.7
2017-11-04T00:01:39.893Z,1006.8
2017-11-04T00:02:42.669Z,1006.7
2017-11-04T00:03:45.108Z,1006.8
2017-11-04T00:04:47.530Z,1006.8
2017-11-04T00:05:49.950Z,1006.7
2017-11-04T00:06:52.385Z,1006.7
2017-11-04T00:07:54.805Z,1006.7
2017-11-04T00:08:57.240Z,1006.7
2017-11-04T00:09:59.671Z,1006.7
2017-11-04T00:11:02.113Z,1006.7
2017-11-04T00:12:04.523Z,1006.6
2017-11-04T00:13:06.968Z,1006.7
2017-11-04T00:14:09.383Z,1006.7
2017-11-04T00:15:11.812Z,1006.7
2017-11-04T00:16:14.232Z,1006.6
2017-11-04T00:17:16.646Z,1006.7
2017-11-04T00:18:19.085Z,1006.6
2017-11-04T00:19:21.863Z,1006.6
2017-11-04T00:20:24.646Z,1006.6
2017-11-04T00:21:27.430Z,1006.5
2017-11-04T00:22:29.852Z,1006.6
2017-11-04T00:23:32.277Z,1006.6
2017-11-04T00:24:34.707Z,1006.6
2017-11-04T00:25:37.129Z,1006.6
2017-11-04T00:26:39.547Z,1006.7
2017-11-04T00:27:41.978Z,1006.7
2017-11-04T00:28:44.410Z,1006.7
2017-11-04T00:29:46.835Z,1006.6
2017-11-04T00:30:49.262Z,1006.7
2017-11-04T00:31:51.699Z,1006.6
2017-11-04T00:32:54.117Z,1006.7
2017-11-04T00:33:56.531Z,1006.6
2017-11-04T00:34:58.966Z,1006.6
2017-11-04T00:36:01.381Z,1006.6
2017-11-04T00:37:03.806Z,1006.6
2017-11-04T00:38:06.237Z,1006.6
2017-11-04T00:39:08.666Z,1006.5
2017-11-04T00:40:11.449Z,1006.5
2017-11-04T00:41:13.880Z,1006.6
2017-11-04T00:42:16.305Z,1006.6
2017-11-04T00:43:18.728Z,1006.5
2017-11-04T00:44:21.159Z,1006.5
2017-11-04T00:45:23.578Z,1006.5
2017-11-04T00:46:25.990Z,1006.5
2017-11-04T00:47:28.418Z,1006.5
2017-11-04T00:48:31.219Z,1006.5
2017-11-04T00:49:33.655Z,1006.5
2017-11-04T00:50:36.438Z,1006.6
2017-11-04T00:51:38.858Z,1006.5
2017-11-04T00:52:41.281Z,1006.5
2017-11-04T00:53:43.704Z,1006.5
2017-11-04T00:54:46.129Z,1006.5
2017-11-04T00:55:48.555Z,1006.5
2017-11-04T00:56:50.980Z,1006.4
2017-11-04T00:57:53.415Z,1006.5
2017-11-04T00:58:55.844Z,1006.4
2017-11-04T00:59:58.281Z,1006.4
2017-11-04T01:01:00.702Z,1006.4
2017-11-04T01:02:03.122Z,1006.4
2017-11-04T01:03:05.555Z,1006.4
2017-11-04T01:04:07.978Z,1006.4
2017-11-04T01:05:10.400Z,1006.4
2017-11-04T01:06:12.838Z,1006.4
2017-11-04T01:07:15.269Z,1006.4
2017-11-04T01:08:17.689Z,1006.4
2017-11-04T01:09:20.132Z,1006.4
2017-11-04T01:10:22.908Z,1006.4
2017-11-04T01:11:25.324Z,1006.4
2017-11-04T01:12:27.745Z,1006.4
2017-11-04T01:13:30.168Z,1006.4
2017-11-04T01:14:32.944Z,1006.4
2017-11-04T01:15:35.369Z,1006.3
2017-11-04T01:16:37.786Z,1006.3
2017-11-04T01:17:40.225Z,1006.3
2017-11-04T01:18:42.637Z,1006.3
2017-11-04T01:19:45.067Z,1006.3
2017-11-04T01:20:47.852Z,1006.3
2017-11-04T01:21:50.285Z,1006.3
2017-11-04T01:22:52.704Z,1006.3
2017-11-04T01:23:55.139Z,1006.3
2017-11-04T01:24:57.566Z,1006.3
2017-11-04T01:26:00.002Z,1006.3
2017-11-04T01:27:02.429Z,1006.3
2017-11-04T01:28:04.860Z,1006.3
2017-11-04T01:29:07.285Z,1006.3
2017-11-04T01:30:09.713Z,1006.3
2017-11-04T01:31:12.136Z,1006.3
2017-11-04T01:32:14.560Z,1006.2
2017-11-04T01:33:16.988Z,1006.2
2017-11-04T01:34:19.417Z,1006.2
2017-11-04T01:35:21.852Z,1006.2
2017-11-04T01:36:24.269Z,1006.2
2017-11-04T01:37:26.693Z,1006.2
2017-11-04T01:38:29.117Z,1006.2
2017-11-04T01:39:31.534Z,1006.2
2017-11-04T01:40:33.957Z,1006.1
2017-11-04T01:41:36.372Z,1006.1
2017-11-04T01:42:38.786Z,1006.2
2017-11-04T01:43:41.230Z,1006.1
2017-11-04T01:44:43.652Z,1006.1
2017-11-04T01:45:46.079Z,1006.1
2017-11-04T01:46:48.504Z,1006.1
2017-11-04T01:47:50.919Z,1006.1
2017-11-04T01:48:53.380Z,1006.2
2017-11-04T01:49:55.806Z,1006.2
2017-11-04T01:50:58.220Z,1006.2
2017-11-04T01:52:00.647Z,1006.2
2017-11-04T01:53:03.068Z,1006.1
2017-11-04T01:54:05.495Z,1006.2
2017-11-04T01:55:08.276Z,1006.1
2017-11-04T01:56:10.695Z,1006.2
2017-11-04T01:57:13.119Z,1006.2
2017-11-04T01:58:15.552Z,1006.2
2017-11-04T01:59:17.975Z,1006.1
2017-11-04T02:00:20.397Z,1006.2
2017-11-04T02:01:22.831Z,1006.1
2017-11-04T02:02:25.251Z,1006.2
2017-11-04T02:03:27.680Z,1006.1
2017-11-04T02:04:30.107Z,1006.1
2017-11-04T02:05:32.916Z,1006.2
2017-11-04T02:06:35.314Z,1006.2
2017-11-04T02:07:37.758Z,1006.2
2017-11-04T02:08:40.168Z,1006.2
2017-11-04T02:09:42.605Z,1006.1
2017-11-04T02:10:45.032Z,1006.1
2017-11-04T02:11:47.464Z,1006.1
2017-11-04T02:12:49.912Z,1006.2
2017-11-04T02:13:52.346Z,1006.1
2017-11-04T02:14:55.149Z,1006.1
2017-11-04T02:15:57.583Z,1006.1
2017-11-04T02:17:00.003Z,1006.1
2017-11-04T02:18:02.443Z,1006.1
2017-11-04T02:19:04.868Z,1006.1
2017-11-04T02:20:07.288Z,1006.1
2017-11-04T02:21:09.723Z,1006.1
2017-11-04T02:22:12.163Z,1006.1
2017-11-04T02:23:14.580Z,1006.1
2017-11-04T02:24:17.016Z,1006.2
2017-11-04T02:25:19.438Z,1006.1
2017-11-04T02:26:21.872Z,1006.1
2017-11-04T02:27:24.299Z,1006.1
2017-11-04T02:28:27.078Z,1006
2017-11-04T02:29:29.499Z,1006.1
2017-11-04T02:30:32.280Z,1006.1
2017-11-04T02:31:34.715Z,1006.1
2017-11-04T02:32:37.142Z,1006.1
2017-11-04T02:33:39.547Z,1006.1
2017-11-04T02:34:41.967Z,1006
2017-11-04T02:35:44.387Z,1006.1
2017-11-04T02:36:46.816Z,1006
2017-11-04T02:37:49.596Z,1006
2017-11-04T02:38:52.371Z,1006
2017-11-04T02:39:54.800Z,1006
2017-11-04T02:40:57.236Z,1006
2017-11-04T02:41:59.668Z,1006
2017-11-04T02:43:02.455Z,1006
2017-11-04T02:44:04.883Z,1005.9
2017-11-04T02:45:07.305Z,1006
2017-11-04T02:46:09.738Z,1005.9
2017-11-04T02:47:12.165Z,1005.9
2017-11-04T02:48:14.585Z,1005.9
2017-11-04T02:49:17.028Z,1005.9
2017-11-04T02:50:19.454Z,1005.9
2017-11-04T02:51:22.256Z,1005.9
2017-11-04T02:52:24.679Z,1006
2017-11-04T02:53:27.101Z,1005.9
2017-11-04T02:54:29.520Z,1005.9
2017-11-04T02:55:31.959Z,1005.9
2017-11-04T02:56:34.383Z,1005.9
2017-11-04T02:57:36.795Z,1005.9
2017-11-04T02:58:39.221Z,1005.9
2017-11-04T02:59:41.650Z,1005.9
2017-11-04T03:00:44.075Z,1005.9
2017-11-04T03:01:46.877Z,1005.9
2017-11-04T03:02:49.347Z,1005.9
2017-11-04T03:03:51.773Z,1005.8
2017-11-04T03:04:54.185Z,1005.9
2017-11-04T03:05:56.604Z,1005.8
2017-11-04T03:06:59.049Z,1005.9
2017-11-04T03:08:01.474Z,1005.9
2017-11-04T03:09:03.898Z,1005.9
2017-11-04T03:10:06.711Z,1005.8
2017-11-04T03:11:09.150Z,1005.8
2017-11-04T03:12:11.580Z,1005.8
2017-11-04T03:13:14.364Z,1005.8
2017-11-04T03:14:17.125Z,1005.8
2017-11-04T03:15:19.581Z,1005.8
2017-11-04T03:16:21.976Z,1005.8
2017-11-04T03:17:24.413Z,1005.8
2017-11-04T03:18:27.189Z,1005.8
2017-11-04T03:19:29.602Z,1005.8
2017-11-04T03:20:32.043Z,1005.8
2017-11-04T03:21:34.459Z,1005.8
2017-11-04T03:22:36.872Z,1005.8
2017-11-04T03:23:39.297Z,1005.8
2017-11-04T03:24:41.710Z,1005.7
2017-11-04T03:25:44.141Z,1005.8
2017-11-04T03:26:46.566Z,1005.8
2017-11-04T03:27:48.997Z,1005.8
2017-11-04T03:28:51.413Z,1005.7
2017-11-04T03:29:53.825Z,1005.7
2017-11-04T03:30:56.611Z,1005.8
2017-11-04T03:31:59.024Z,1005.7
2017-11-04T03:33:01.827Z,1005.7
2017-11-04T03:34:04.604Z,1005.7
2017-11-04T03:35:07.024Z,1005.7
2017-11-04T03:36:09.450Z,1005.7
2017-11-04T03:37:12.228Z,1005.7
2017-11-04T03:38:14.649Z,1005.7
2017-11-04T03:39:17.086Z,1005.7
2017-11-04T03:40:19.507Z,1005.7
2017-11-04T03:41:21.933Z,1005.7
2017-11-04T03:42:24.353Z,1005.7
2017-11-04T03:43:27.137Z,1005.7
2017-11-04T03:44:29.904Z,1005.6
2017-11-04T03:45:32.335Z,1005.6
2017-11-04T03:46:34.753Z,1005.6
2017-11-04T03:47:37.177Z,1005.6
2017-11-04T03:48:39.594Z,1005.6
2017-11-04T03:49:42.021Z,1005.6
2017-11-04T03:50:44.441Z,1005.6
2017-11-04T03:51:46.866Z,1005.6
2017-11-04T03:52:49.290Z,1005.5
2017-11-04T03:53:51.722Z,1005.5
2017-11-04T03:54:54.151Z,1005.6
2017-11-04T03:55:56.581Z,1005.5
2017-11-04T03:56:59.005Z,1005.6
2017-11-04T03:58:01.433Z,1005.5
2017-11-04T03:59:03.855Z,1005.5
2017-11-04T04:00:06.294Z,1005.6
2017-11-04T04:01:08.720Z,1005.5
2017-11-04T04:02:11.133Z,1005.6
2017-11-04T04:03:13.563Z,1005.5
2017-11-04T04:04:15.983Z,1005.6
2017-11-04T04:05:18.412Z,1005.5
2017-11-04T04:06:20.837Z,1005.6
2017-11-04T04:07:23.260Z,1005.5
2017-11-04T04:08:25.687Z,1005.5
2017-11-04T04:09:28.117Z,1005.6
2017-11-04T04:10:30.538Z,1005.5
2017-11-04T04:11:32.956Z,1005.5
2017-11-04T04:12:35.379Z,1005.5
2017-11-04T04:13:37.800Z,1005.5
2017-11-04T04:14:40.573Z,1005.5
2017-11-04T04:15:42.998Z,1005.5
2017-11-04T04:16:45.424Z,1005.5
2017-11-04T04:17:47.877Z,1005.4
2017-11-04T04:18:50.302Z,1005.4
2017-11-04T04:19:52.723Z,1005.4
2017-11-04T04:20:55.136Z,1005.4
2017-11-04T04:21:57.924Z,1005.4
2017-11-04T04:23:00.341Z,1005.4
2017-11-04T04:24:02.776Z,1005.3
2017-11-04T04:25:05.186Z,1005.3
2017-11-04T04:26:07.605Z,1005.3
2017-11-04T04:27:10.029Z,1005.3
2017-11-04T04:28:12.460Z,1005.3
2017-11-04T04:29:14.879Z,1005.3
2017-11-04T04:30:17.306Z,1005.3
2017-11-04T04:31:19.722Z,1005.3
2017-11-04T04:32:22.141Z,1005.3
2017-11-04T04:33:24.571Z,1005.3
2017-11-04T04:34:27.000Z,1005.2
2017-11-04T04:35:29.426Z,1005.3
2017-11-04T04:36:31.846Z,1005.2
2017-11-04T04:37:34.279Z,1005.2
2017-11-04T04:38:36.700Z,1005.2
2017-11-04T04:39:39.128Z,1005.2
2017-11-04T04:40:41.544Z,1005.2
2017-11-04T04:41:44.318Z,1005.2
2017-11-04T04:42:46.756Z,1005.2
2017-11-04T04:43:49.177Z,1005.2
2017-11-04T04:44:51.951Z,1005.2
2017-11-04T04:45:54.368Z,1005.2
2017-11-04T04:46:56.805Z,1005.2
2017-11-04T04:47:59.229Z,1005.2
2017-11-04T04:49:01.651Z,1005.2
2017-11-04T04:50:04.082Z,1005.2
2017-11-04T04:51:06.515Z,1005.2
2017-11-04T04:52:09.323Z,1005.2
2017-11-04T04:53:11.747Z,1005.2
2017-11-04T04:54:14.167Z,1005.2
2017-11-04T04:55:16.577Z,1005.2
2017-11-04T04:56:19.361Z,1005.2
2017-11-04T04:57:21.785Z,1005.2
2017-11-04T04:58:24.204Z,1005.2
2017-11-04T04:59:26.629Z,1005.2
2017-11-04T05:00:29.062Z,1005.2
2017-11-04T05:01:31.474Z,1005.2
2017-11-04T05:02:33.903Z,1005.1
2017-11-04T05:03:36.334Z,1005.1
2017-11-04T05:04:39.117Z,1005.1
2017-11-04T05:05:41.539Z,1005.1
2017-11-04T05:06:43.962Z,1005.2
2017-11-04T05:07:46.372Z,1005.2
2017-11-04T05:08:48.810Z,1005.2
2017-11-04T05:09:51.235Z,1005.2
2017-11-04T05:10:53.649Z,1005.2
2017-11-04T05:11:56.077Z,1005.2
2017-11-04T05:12:58.496Z,1005.1
2017-11-04T05:14:00.923Z,1005.2
2017-11-04T05:15:03.340Z,1005.2
2017-11-04T05:16:05.765Z,1005.1
2017-11-04T05:17:08.183Z,1005.2
2017-11-04T05:18:10.620Z,1005.2
2017-11-04T05:19:13.044Z,1005.2
2017-11-04T05:20:15.454Z,1005.2
2017-11-04T05:21:17.880Z,1005.1
2017-11-04T05:22:20.299Z,1005.2
2017-11-04T05:23:23.077Z,1005.2
2017-11-04T05:24:25.510Z,1005.1
2017-11-04T05:25:27.942Z,1005.1
2017-11-04T05:26:30.367Z,1005.1
2017-11-04T05:27:32.806Z,1005.1
2017-11-04T05:28:35.229Z,1005.1
2017-11-04T05:29:37.657Z,1005.1
2017-11-04T05:30:40.088Z,1005.1
2017-11-04T05:31:42.517Z,1005.1
2017-11-04T05:32:44.936Z,1005
2017-11-04T05:33:47.357Z,1005.1
2017-11-04T05:34:49.793Z,1005.1
2017-11-04T05:35:52.208Z,1005
2017-11-04T05:36:54.625Z,1005
2017-11-04T05:37:57.048Z,1005
2017-11-04T05:38:59.495Z,1005.1
2017-11-04T05:40:01.920Z,1005
2017-11-04T05:41:04.343Z,1005
2017-11-04T05:42:06.749Z,1005
2017-11-04T05:43:09.187Z,1005
2017-11-04T05:44:11.976Z,1005
2017-11-04T05:45:14.409Z,1005
2017-11-04T05:46:16.830Z,1005
2017-11-04T05:47:19.251Z,1005
2017-11-04T05:48:21.679Z,1005
2017-11-04T05:49:24.100Z,1005
2017-11-04T05:50:26.519Z,1005
2017-11-04T05:51:28.947Z,1005
2017-11-04T05:52:31.358Z,1005
2017-11-04T05:53:33.783Z,1005
2017-11-04T05:54:36.560Z,1005
2017-11-04T05:55:38.989Z,1005
2017-11-04T05:56:41.406Z,1005
2017-11-04T05:57:43.841Z,1005
2017-11-04T05:58:46.952Z,1005
2017-11-04T05:59:49.394Z,1005
2017-11-04T06:00:52.188Z,1004.9
2017-11-04T06:01:54.604Z,1005
2017-11-04T06:02:57.029Z,1004.9
2017-11-04T06:03:59.453Z,1004.9
2017-11-04T06:05:01.870Z,1004.9
2017-11-04T06:06:04.671Z,1005
2017-11-04T06:07:07.096Z,1005
2017-11-04T06:08:09.506Z,1005
2017-11-04T06:09:11.930Z,1005
2017-11-04T06:10:14.358Z,1005
2017-11-04T06:11:16.782Z,1005
2017-11-04T06:12:19.199Z,1005
2017-11-04T06:13:21.615Z,1005
2017-11-04T06:14:24.040Z,1005
2017-11-04T06:15:26.466Z,1005
2017-11-04T06:16:28.886Z,1005
2017-11-04T06:17:31.669Z,1005
2017-11-04T06:18:34.092Z,1005
2017-11-04T06:19:36.512Z,1005.1
2017-11-04T06:20:38.932Z,1005
2017-11-04T06:21:41.344Z,1005
2017-11-04T06:22:43.765Z,1005
2017-11-04T06:23:46.197Z,1005
2017-11-04T06:24:48.623Z,1005
2017-11-04T06:25:51.148Z,1005
2017-11-04T06:26:53.571Z,1005
2017-11-04T06:27:56.001Z,1005
2017-11-04T06:28:58.422Z,1005
2017-11-04T06:30:00.842Z,1005
2017-11-04T06:31:03.272Z,1005
2017-11-04T06:32:05.691Z,1004.9
2017-11-04T06:33:08.118Z,1004.9
2017-11-04T06:34:10.525Z,1004.9
2017-11-04T06:35:12.959Z,1004.9
2017-11-04T06:36:15.736Z,1004.9
2017-11-04T06:37:18.163Z,1004.9
2017-11-04T06:38:20.589Z,1004.9
2017-11-04T06:39:23.007Z,1004.9
2017-11-04T06:40:26.147Z,1004.9
2017-11-04T06:41:28.582Z,1004.9
2017-11-04T06:42:30.999Z,1004.9
2017-11-04T06:43:33.433Z,1004.8
2017-11-04T06:44:35.847Z,1004.9
2017-11-04T06:45:38.261Z,1004.8
2017-11-04T06:46:40.684Z,1004.9
2017-11-04T06:47:43.098Z,1004.8
2017-11-04T06:48:45.520Z,1004.9
2017-11-04T06:49:47.951Z,1004.9
2017-11-04T06:50:50.357Z,1004.9
2017-11-04T06:51:52.779Z,1004.9
2017-11-04T06:52:55.223Z,1004.8
2017-11-04T06:53:57.996Z,1004.8
2017-11-04T06:55:00.425Z,1004.8
2017-11-04T06:56:02.849Z,1004.8
2017-11-04T06:57:05.288Z,1004.9
2017-11-04T06:58:07.694Z,1004.9
2017-11-04T06:59:10.118Z,1004.9
2017-11-04T07:00:12.536Z,1004.9
2017-11-04T07:01:15.313Z,1004.9
2017-11-04T07:02:17.751Z,1004.9
2017-11-04T07:03:20.167Z,1004.9
2017-11-04T07:04:22.935Z,1004.9
2017-11-04T07:05:25.367Z,1004.8
2017-11-04T07:06:27.783Z,1004.9
2017-11-04T07:07:30.210Z,1004.8
2017-11-04T07:08:32.628Z,1004.9
2017-11-04T07:09:35.055Z,1004.8
2017-11-04T07:10:37.474Z,1004.8
2017-11-04T07:11:39.900Z,1004.8
2017-11-04T07:12:42.319Z,1004.8
2017-11-04T07:13:44.757Z,1004.8
2017-11-04T07:14:47.176Z,1004.8
2017-11-04T07:15:49.613Z,1004.8
2017-11-04T07:16:52.379Z,1004.8
2017-11-04T07:17:54.809Z,1004.8
2017-11-04T07:18:57.235Z,1004.8
2017-11-04T07:19:59.655Z,1004.8
2017-11-04T07:21:02.077Z,1004.8
2017-11-04T07:22:04.864Z,1004.8
2017-11-04T07:23:07.635Z,1004.8
2017-11-04T07:24:10.078Z,1004.8
2017-11-04T07:25:12.850Z,1004.8
2017-11-04T07:26:15.263Z,1004.8
2017-11-04T07:27:17.691Z,1004.7
2017-11-04T07:28:20.107Z,1004.7
2017-11-04T07:29:22.524Z,1004.7
2017-11-04T07:30:24.943Z,1004.7
2017-11-04T07:31:27.583Z,1004.7
2017-11-04T07:32:30.009Z,1004.7
2017-11-04T07:33:32.432Z,1004.8
2017-11-04T07:34:35.560Z,1004.8
2017-11-04T07:35:53.004Z,1004.8
2017-11-04T07:36:55.371Z,1004.8
2017-11-04T07:37:57.736Z,1004.8
2017-11-04T07:39:00.122Z,1004.9
2017-11-04T07:40:02.488Z,1004.8
2017-11-04T07:41:05.209Z,1004.8
2017-11-04T07:42:07.929Z,1004.8
2017-11-04T07:43:10.299Z,1004.8
2017-11-04T07:44:12.676Z,1004.8
2017-11-04T07:45:15.048Z,1004.9
2017-11-04T07:46:17.768Z,1004.8
2017-11-04T07:47:20.142Z,1004.8
2017-11-04T07:48:22.525Z,1004.8
2017-11-04T07:49:25.264Z,1004.8
2017-11-04T07:50:27.987Z,1004.8
2017-11-04T07:51:30.353Z,1004.8
2017-11-04T07:52:32.735Z,1004.8
2017-11-04T07:53:35.462Z,1004.8
2017-11-04T07:54:37.834Z,1004.8
2017-11-04T07:55:40.201Z,1004.8
2017-11-04T07:56:42.569Z,1004.8
2017-11-04T07:57:44.959Z,1004.7
2017-11-04T07:58:47.332Z,1004.7
2017-11-04T07:59:49.702Z,1004.7
2017-11-04T08:00:52.079Z,1004.8
2017-11-04T08:01:54.446Z,1004.7
2017-11-04T08:02:56.813Z,1004.7
2017-11-04T08:03:59.195Z,1004.7
2017-11-04T08:05:01.557Z,1004.7
2017-11-04T08:06:03.932Z,1004.7
2017-11-04T08:07:06.295Z,1004.7
2017-11-04T08:08:08.675Z,1004.7
2017-11-04T08:09:11.044Z,1004.7
2017-11-04T08:10:13.420Z,1004.7
2017-11-04T08:11:15.788Z,1004.7
2017-11-04T08:12:18.163Z,1004.7
2017-11-04T08:13:20.546Z,1004.7
2017-11-04T08:14:23.274Z,1004.6
2017-11-04T08:15:25.635Z,1004.7
2017-11-04T08:16:28.372Z,1004.6
2017-11-04T08:17:30.757Z,1004.6
2017-11-04T08:18:33.178Z,1004.6
2017-11-04T08:19:36.053Z,1004.6
2017-11-04T08:20:39.338Z,1004.6
2017-11-04T08:21:41.779Z,1004.6
2017-11-04T08:22:44.235Z,1004.6
2017-11-04T08:23:46.732Z,1004.5
2017-11-04T08:24:49.562Z,1004.5
2017-11-04T08:25:52.415Z,1004.5
2017-11-04T08:26:57.919Z,1004.5
2017-11-04T08:28:08.234Z,1004.5
2017-11-04T08:29:12.678Z,1004.6
2017-11-04T08:30:18.499Z,1004.5
2017-11-04T08:31:22.368Z,1004.5
2017-11-04T08:32:32.007Z,1004.5
2017-11-04T08:33:40.829Z,1004.5
2017-11-04T08:34:51.412Z,1004.5
2017-11-04T08:36:01.509Z,1004.5
2017-11-04T08:37:12.183Z,1004.5
2017-11-04T08:38:23.381Z,1004.5
2017-11-04T08:39:32.399Z,1004.5
2017-11-04T08:40:42.305Z,1004.5
2017-11-04T08:41:53.753Z,1004.5
2017-11-04T08:43:03.950Z,1004.4
2017-11-04T08:44:14.286Z,1004.4
2017-11-04T08:45:25.645Z,1004.4
2017-11-04T08:46:37.536Z,1004.4
2017-11-04T08:47:48.823Z,1004.4
2017-11-04T08:48:59.414Z,1004.3
2017-11-04T08:50:11.455Z,1004.3
2017-11-04T08:51:22.427Z,1004.3
2017-11-04T08:52:31.969Z,1004.3
2017-11-04T08:53:42.368Z,1004.3
2017-11-04T08:54:52.179Z,1004.3
2017-11-04T08:56:02.522Z,1004.3
2017-11-04T08:57:14.077Z,1004.3
2017-11-04T08:58:24.606Z,1004.3
2017-11-04T08:59:32.684Z,1004.3
2017-11-04T09:00:42.438Z,1004.3
2017-11-04T09:01:52.967Z,1004.3
2017-11-04T09:03:04.307Z,1004.3
2017-11-04T09:04:13.471Z,1004.3
2017-11-04T09:05:23.087Z,1004.3
2017-11-04T09:06:33.438Z,1004.3
2017-11-04T09:07:44.560Z,1004.3
2017-11-04T09:08:56.610Z,1004.2
2017-11-04T09:10:07.743Z,1004.3
2017-11-04T09:11:17.887Z,1004.3
2017-11-04T09:12:29.030Z,1004.3
2017-11-04T09:13:39.947Z,1004.3
2017-11-04T09:14:49.062Z,1004.3
2017-11-04T09:16:00.663Z,1004.3
2017-11-04T09:17:12.226Z,1004.2
2017-11-04T09:18:22.720Z,1004.2
2017-11-04T09:19:33.177Z,1004.2
2017-11-04T09:20:44.060Z,1004.2
2017-11-04T09:21:55.049Z,1004.2
2017-11-04T09:23:05.078Z,1004.2
2017-11-04T09:24:15.968Z,1004.1
2017-11-04T09:25:26.972Z,1004.1
2017-11-04T09:26:38.317Z,1004.1
2017-11-04T09:27:48.824Z,1004.1
2017-11-04T09:28:59.780Z,1004.1
2017-11-04T09:30:10.645Z,1004.1
2017-11-04T09:31:20.446Z,1004.1
2017-11-04T09:34:10.623Z,1004.1
2017-11-04T09:35:22.598Z,1004.1
2017-11-04T09:36:32.831Z,1004.1
2017-11-04T09:37:41.653Z,1004.1
2017-11-04T09:38:52.395Z,1004.1
2017-11-04T09:40:01.962Z,1004.1
2017-11-04T09:41:12.815Z,1004
2017-11-04T09:42:21.977Z,1004
2017-11-04T09:43:33.116Z,1004
2017-11-04T09:44:42.858Z,1003.9
2017-11-04T09:45:52.646Z,1003.9
2017-11-04T09:47:02.711Z,1003.8
2017-11-04T09:48:12.331Z,1003.8
2017-11-04T09:49:22.236Z,1003.8
2017-11-04T09:50:32.300Z,1003.8
2017-11-04T09:51:41.921Z,1003.8
2017-11-04T09:52:53.078Z,1003.8
2017-11-04T09:54:03.482Z,1003.7
2017-11-04T09:55:13.130Z,1003.7
2017-11-04T09:56:24.241Z,1003.7
2017-11-04T09:57:34.254Z,1003.7
2017-11-04T09:58:44.747Z,1003.7
2017-11-04T09:59:48.928Z,1003.7
2017-11-04T10:01:00.332Z,1003.6
2017-11-04T10:02:09.826Z,1003.6
2017-11-04T10:03:19.772Z,1003.6
2017-11-04T10:04:30.650Z,1003.6
2017-11-04T10:05:41.816Z,1003.5
2017-11-04T10:06:55.508Z,1003.5
2017-11-04T10:08:05.928Z,1003.5
2017-11-04T10:09:17.460Z,1003.5
2017-11-04T10:10:27.384Z,1003.5
2017-11-04T10:11:37.989Z,1003.4
2017-11-04T10:12:45.729Z,1003.4
2017-11-04T10:13:48.816Z,1003.4
2017-11-04T10:14:53.135Z,1003.4
2017-11-04T10:16:01.804Z,1003.3
2017-11-04T10:17:11.888Z,1003.3
2017-11-04T10:18:23.210Z,1003.3
2017-11-04T10:19:33.004Z,1003.2
2017-11-04T10:20:43.456Z,1003.2
2017-11-04T10:21:53.747Z,1003.2
2017-11-04T10:23:04.042Z,1003.2
2017-11-04T10:24:14.127Z,1003.1
2017-11-04T10:25:26.125Z,1003.1
2017-11-04T10:26:34.901Z,1003
2017-11-04T10:27:38.727Z,1003
2017-11-04T10:28:41.228Z,1003
2017-11-04T10:29:48.714Z,1002.9
2017-11-04T10:30:58.657Z,1002.9
2017-11-04T10:32:08.143Z,1002.9
2017-11-04T10:33:16.791Z,1002.9
2017-11-04T10:34:25.329Z,1002.9
2017-11-04T10:35:30.224Z,1002.8
2017-11-04T10:36:39.198Z,1002.8
2017-11-04T10:37:48.938Z,1002.8
2017-11-04T10:38:59.870Z,1002.8
2017-11-04T10:40:09.697Z,1002.8
2017-11-04T10:41:12.176Z,1002.8
2017-11-04T10:42:21.712Z,1002.8
2017-11-04T10:43:29.829Z,1002.8
2017-11-04T10:44:38.375Z,1002.8
2017-11-04T10:45:47.713Z,1002.8
2017-11-04T10:46:54.603Z,1002.8
2017-11-04T10:48:00.524Z,1002.8
2017-11-04T10:49:03.791Z,1002.7
2017-11-04T10:50:08.064Z,1002.7
2017-11-04T10:51:10.555Z,1002.6
2017-11-04T10:52:14.740Z,1002.6
2017-11-04T10:53:17.888Z,1002.5
2017-11-04T10:54:20.305Z,1002.6
2017-11-04T10:55:22.329Z,1002.5
2017-11-04T10:56:24.352Z,1002.5
2017-11-04T10:57:26.745Z,1002.5
2017-11-04T10:58:28.769Z,1002.5
2017-11-04T10:59:30.806Z,1002.5
2017-11-04T11:00:32.828Z,1002.5
2017-11-04T11:01:34.857Z,1002.4
2017-11-04T11:02:36.877Z,1002.4
2017-11-04T11:03:38.915Z,1002.4
2017-11-04T11:04:40.952Z,1002.4
2017-11-04T11:05:42.978Z,1002.4
2017-11-04T11:06:45.022Z,1002.3
2017-11-04T11:07:47.050Z,1002.3
2017-11-04T11:08:49.444Z,1002.3
2017-11-04T11:09:51.477Z,1002.3
2017-11-04T11:10:53.502Z,1002.3
2017-11-04T11:11:55.529Z,1002.3
2017-11-04T11:12:57.560Z,1002.3
2017-11-04T11:13:59.594Z,1002.3
2017-11-04T11:15:01.619Z,1002.3
2017-11-04T11:16:03.994Z,1002.3
2017-11-04T11:17:06.022Z,1002.3
2017-11-04T11:18:08.050Z,1002.2
2017-11-04T11:19:10.077Z,1002.2
2017-11-04T11:20:12.098Z,1002.2
2017-11-04T11:21:14.122Z,1002.2
2017-11-04T11:22:16.144Z,1002.1
2017-11-04T11:23:18.164Z,1002.1
2017-11-04T11:24:20.203Z,1002
2017-11-04T11:25:22.218Z,1002.1
2017-11-04T11:26:24.244Z,1002
2017-11-04T11:27:26.280Z,1002
2017-11-04T11:28:28.307Z,1002.1
2017-11-04T11:29:30.334Z,1002
2017-11-04T11:30:32.365Z,1002
2017-11-04T11:31:34.406Z,1002.1
2017-11-04T11:32:36.425Z,1002
2017-11-04T11:33:38.456Z,1002
2017-11-04T11:34:40.509Z,1002
2017-11-04T11:35:42.537Z,1002
2017-11-04T11:36:44.562Z,1002
2017-11-04T11:37:46.594Z,1002
2017-11-04T11:38:48.628Z,1002
2017-11-04T11:39:50.994Z,1002
2017-11-04T11:40:53.030Z,1002
2017-11-04T11:41:55.056Z,1002
2017-11-04T11:42:57.081Z,1002
2017-11-04T11:43:59.106Z,1002
2017-11-04T11:45:01.133Z,1002
2017-11-04T11:46:03.159Z,1002
2017-11-04T11:47:05.196Z,1002
2017-11-04T11:48:07.582Z,1002
2017-11-04T11:49:09.612Z,1002
2017-11-04T11:50:11.634Z,1001.9
2017-11-04T11:51:13.662Z,1001.9
2017-11-04T11:52:15.683Z,1001.8
2017-11-04T11:53:17.710Z,1001.8
2017-11-04T11:54:19.738Z,1001.8
2017-11-04T11:55:21.774Z,1001.8
2017-11-04T11:56:23.813Z,1001.8
2017-11-04T11:57:25.832Z,1001.8
2017-11-04T11:58:27.870Z,1001.7
2017-11-04T11:59:29.900Z,1001.7
2017-11-04T12:00:31.923Z,1001.7
2017-11-04T12:01:33.959Z,1001.5
2017-11-04T12:02:35.990Z,1001.5
2017-11-04T12:03:38.023Z,1001.6
2017-11-04T12:04:40.057Z,1001.6
2017-11-04T12:05:42.430Z,1001.5
2017-11-04T12:06:44.471Z,1001.5
2017-11-04T12:07:46.485Z,1001.5
2017-11-04T12:08:48.517Z,1001.5
2017-11-04T12:09:50.900Z,1001.4
2017-11-04T12:10:52.918Z,1001.4
2017-11-04T12:11:54.943Z,1001.4
2017-11-04T12:12:57.350Z,1001.3
2017-11-04T12:13:59.369Z,1001.4
2017-11-04T12:15:01.416Z,1001.4
2017-11-04T12:16:03.437Z,1001.3
2017-11-04T12:17:05.467Z,1001.3
2017-11-04T12:18:07.489Z,1001.2
2017-11-04T12:19:09.524Z,1001.2
2017-11-04T12:20:11.545Z,1001.2
2017-11-04T12:21:13.573Z,1001.2
2017-11-04T12:22:15.607Z,1001.2
2017-11-04T12:23:17.635Z,1001.2
2017-11-04T12:24:19.674Z,1001.1
2017-11-04T12:25:21.703Z,1001.1
2017-11-04T12:26:23.725Z,1001.1
2017-11-04T12:27:25.752Z,1001.1
2017-11-04T12:28:27.772Z,1001
2017-11-04T12:29:29.812Z,1001
2017-11-04T12:30:31.846Z,1001.1
2017-11-04T12:31:33.876Z,1001
2017-11-04T12:32:35.906Z,1001
2017-11-04T12:33:37.931Z,1001
2017-11-04T12:34:39.975Z,1001
2017-11-04T12:35:41.998Z,1001
2017-11-04T12:36:44.018Z,1001.1
2017-11-04T12:37:46.047Z,1001
2017-11-04T12:38:48.081Z,1001.1
2017-11-04T12:39:50.116Z,1001
2017-11-04T12:40:52.117Z,1001
2017-11-04T12:41:54.144Z,1001.1
2017-11-04T12:42:56.172Z,1001.1
2017-11-04T12:43:58.197Z,1001
2017-11-04T12:45:00.221Z,1001.1
2017-11-04T12:46:02.255Z,1001
2017-11-04T12:47:04.288Z,1001
2017-11-04T12:48:06.296Z,1001
2017-11-04T12:49:08.326Z,1001
2017-11-04T12:50:10.380Z,1001
2017-11-04T12:51:12.384Z,1001
2017-11-04T12:52:14.410Z,1000.9
2017-11-04T12:53:16.442Z,1000.9
2017-11-04T12:54:18.480Z,1000.9
2017-11-04T12:55:20.491Z,1000.9
2017-11-04T12:56:22.523Z,1000.9
2017-11-04T12:57:24.555Z,1000.9
2017-11-04T12:58:26.575Z,1000.9
2017-11-04T12:59:28.601Z,1000.9
2017-11-04T13:00:30.622Z,1000.9
2017-11-04T13:01:32.651Z,1000.8
2017-11-04T13:02:34.683Z,1000.8
2017-11-04T13:03:36.705Z,1000.8
2017-11-04T13:04:38.745Z,1000.8
2017-11-04T13:05:40.771Z,1000.8
2017-11-04T13:06:42.790Z,1000.8
2017-11-04T13:07:44.818Z,1000.8
2017-11-04T13:08:46.845Z,1000.7
2017-11-04T13:09:49.242Z,1000.7
2017-11-04T13:10:51.261Z,1000.7
2017-11-04T13:11:53.286Z,1000.7
2017-11-04T13:12:55.306Z,1000.7
2017-11-04T13:13:57.340Z,1000.7
2017-11-04T13:14:59.367Z,1000.6
2017-11-04T13:16:01.749Z,1000.7
2017-11-04T13:17:03.774Z,1000.6
2017-11-04T13:18:05.804Z,1000.6
2017-11-04T13:19:07.820Z,1000.7
2017-11-04T13:20:09.848Z,1000.7
2017-11-04T13:21:12.214Z,1000.7
2017-11-04T13:22:14.250Z,1000.7